Terminal Aerodrome Forecast
Issued by NWS Duluth, MN

Home | Current Version | Previous Version | Text Only | Print | Product List | Glossary On
Versions: 1 2 3 4 5 6 7 8 9 10 11 12 13 14 15 16 17 18 19 20
470
FTUS43 KDLH 111140
TAFINL
TAF
KINL 111140Z 1112/1212 25003KT P6SM BKN080
     FM112100 28007KT P6SM BKN030 OVC050
     FM120400 31008KT P6SM SCT030
     FM120900 32010G16KT P6SM FEW020=

USA.gov is the U.S. government's official web portal to all federal, state and local government web resources and services.